createdAt,value
2022-11-14T00:01:13.394Z,3.77
2022-11-14T00:03:58.891Z,4.23
2022-11-14T00:06:44.019Z,4.40
2022-11-14T00:09:29.905Z,5.37
2022-11-14T00:12:15.201Z,5.60
2022-11-14T00:15:00.736Z,4.20
2022-11-14T00:17:45.911Z,4.90
2022-11-14T00:20:32.241Z,3.97
2022-11-14T00:23:18.038Z,4.30
2022-11-14T00:26:03.184Z,4.47
2022-11-14T00:28:48.067Z,4.60
2022-11-14T00:31:33.429Z,6.07
2022-11-14T00:34:18.736Z,4.10
2022-11-14T00:37:04.173Z,5.90
2022-11-14T00:39:49.296Z,5.47
2022-11-14T00:42:34.869Z,4.83
2022-11-14T00:45:20.181Z,5.23
2022-11-14T00:48:05.593Z,5.63
2022-11-14T00:50:50.912Z,5.47
2022-11-14T00:53:36.357Z,6.37
2022-11-14T00:56:21.539Z,6.97
2022-11-14T00:59:06.855Z,6.63
2022-11-14T01:01:57.571Z,5.97
2022-11-14T01:04:43.038Z,6.40
2022-11-14T01:07:28.970Z,6.43
2022-11-14T01:10:14.770Z,6.87
2022-11-14T01:12:59.888Z,7.37
2022-11-14T01:15:47.557Z,7.03
2022-11-14T01:18:32.934Z,6.40
2022-11-14T01:21:18.435Z,6.07
2022-11-14T01:24:04.124Z,7.17
2022-11-14T01:26:49.250Z,6.90
2022-11-14T01:29:34.478Z,6.87
2022-11-14T01:32:19.741Z,7.67
2022-11-14T01:35:05.207Z,9.27
2022-11-14T01:37:50.480Z,7.00
2022-11-14T01:40:41.957Z,7.03
2022-11-14T01:43:33.356Z,6.63
2022-11-14T01:46:26.172Z,6.77
2022-11-14T01:49:34.458Z,7.07
2022-11-14T01:52:36.232Z,6.87
2022-11-14T01:55:21.305Z,7.43
2022-11-14T01:58:06.877Z,7.50
2022-11-14T02:00:51.828Z,8.63
2022-11-14T02:03:40.229Z,8.13
2022-11-14T02:06:29.148Z,7.43
2022-11-14T02:09:14.970Z,7.87
2022-11-14T02:12:02.529Z,8.87
2022-11-14T02:14:52.302Z,8.27
2022-11-14T02:17:37.679Z,9.03
2022-11-14T02:20:28.512Z,9.13
2022-11-14T02:23:13.744Z,9.30
2022-11-14T02:25:59.622Z,9.60
2022-11-14T02:28:45.448Z,9.57
2022-11-14T02:31:30.603Z,10.90
2022-11-14T02:34:19.970Z,12.27
2022-11-14T02:37:06.059Z,11.00
2022-11-14T02:39:51.361Z,10.87
2022-11-14T02:42:36.659Z,11.63
2022-11-14T02:45:21.972Z,11.13
2022-11-14T02:48:08.497Z,14.03
2022-11-14T02:50:53.588Z,15.40
2022-11-14T02:53:38.789Z,16.13
2022-11-14T02:56:24.237Z,19.50
2022-11-14T02:59:09.331Z,19.77
2022-11-14T03:01:54.447Z,19.13
2022-11-14T03:04:39.741Z,21.10
2022-11-14T03:07:25.056Z,20.33
2022-11-14T03:10:11.256Z,19.50
2022-11-14T03:12:57.413Z,21.60
2022-11-14T03:15:42.595Z,21.00
2022-11-14T03:18:28.090Z,22.00
2022-11-14T03:21:19.468Z,20.77
2022-11-14T03:24:04.770Z,23.33
2022-11-14T03:26:49.992Z,22.57
2022-11-14T03:29:35.318Z,22.33
2022-11-14T03:32:20.564Z,22.03
2022-11-14T03:35:06.248Z,22.23
2022-11-14T03:37:55.235Z,23.77
2022-11-14T03:40:41.562Z,23.93
2022-11-14T03:43:30.183Z,24.93
2022-11-14T03:46:15.225Z,25.17
2022-11-14T03:49:00.522Z,25.17
2022-11-14T03:51:45.695Z,25.40
2022-11-14T03:54:31.189Z,26.63
2022-11-14T03:57:16.309Z,26.23
2022-11-14T04:00:01.306Z,25.60
2022-11-14T04:02:47.602Z,22.67
2022-11-14T04:05:32.801Z,26.63
2022-11-14T04:08:18.185Z,23.83
2022-11-14T04:11:03.257Z,26.27
2022-11-14T04:13:48.615Z,25.33
2022-11-14T04:16:34.030Z,27.80
2022-11-14T04:19:19.275Z,26.00
2022-11-14T04:22:04.775Z,26.03
2022-11-14T04:24:49.743Z,26.93
2022-11-14T04:27:35.106Z,26.10
2022-11-14T04:30:20.336Z,29.57
2022-11-14T04:33:05.739Z,26.60
2022-11-14T04:35:51.104Z,29.80
2022-11-14T04:38:36.597Z,28.90
2022-11-14T04:41:21.677Z,28.53
2022-11-14T04:44:06.972Z,28.37
2022-11-14T04:46:52.271Z,29.30
2022-11-14T04:49:37.514Z,29.33
2022-11-14T04:52:22.930Z,30.93
2022-11-14T04:55:08.604Z,30.10
2022-11-14T04:57:58.014Z,33.73
2022-11-14T05:00:43.216Z,34.70
2022-11-14T05:03:29.322Z,43.97
2022-11-14T05:06:14.355Z,53.30
2022-11-14T05:08:59.603Z,43.67
2022-11-14T05:11:44.824Z,38.70
2022-11-14T05:14:31.730Z,62.87
2022-11-14T05:17:17.009Z,37.17
2022-11-14T05:20:02.236Z,45.70
2022-11-14T05:22:47.472Z,34.03
2022-11-14T05:25:32.637Z,37.40
2022-11-14T05:28:18.168Z,46.80
2022-11-14T05:31:08.856Z,46.17
2022-11-14T05:33:53.900Z,33.60
2022-11-14T05:36:39.228Z,39.47
2022-11-14T05:39:24.572Z,38.53
2022-11-14T05:42:09.711Z,32.40
2022-11-14T05:44:54.995Z,32.37
2022-11-14T05:47:39.974Z,30.27
2022-11-14T05:50:25.403Z,29.67
2022-11-14T05:53:10.716Z,32.73
2022-11-14T05:55:59.992Z,28.10
2022-11-14T05:58:44.908Z,33.10
2022-11-14T06:01:30.165Z,36.60
2022-11-14T06:04:15.399Z,28.43
2022-11-14T06:07:00.805Z,29.73
2022-11-14T06:09:45.983Z,27.13
2022-11-14T06:12:32.233Z,23.67
2022-11-14T06:15:17.582Z,24.07
2022-11-14T06:18:02.637Z,22.57
2022-11-14T06:20:47.974Z,26.37
2022-11-14T06:23:34.017Z,24.23
2022-11-14T06:26:30.216Z,25.83
2022-11-14T06:29:15.053Z,25.53
2022-11-14T06:32:00.188Z,27.30
2022-11-14T06:34:45.660Z,24.17
2022-11-14T06:37:33.648Z,26.23
2022-11-14T06:40:19.200Z,24.70
2022-11-14T06:43:04.304Z,22.77
2022-11-14T06:45:49.514Z,20.83
2022-11-14T06:48:35.758Z,20.20
2022-11-14T06:51:20.899Z,21.60
2022-11-14T06:54:06.257Z,19.90
2022-11-14T06:56:51.518Z,19.57
2022-11-14T06:59:37.167Z,26.10
2022-11-14T07:02:22.283Z,25.53
2022-11-14T07:05:07.528Z,37.13
2022-11-14T07:07:52.718Z,23.47
2022-11-14T07:10:38.067Z,22.60
2022-11-14T07:13:23.326Z,19.67
2022-11-14T07:16:08.430Z,17.47
2022-11-14T07:18:53.547Z,17.50
2022-11-14T07:21:39.401Z,15.30
2022-11-14T07:24:24.680Z,15.83
2022-11-14T07:27:12.767Z,15.43
2022-11-14T07:29:57.609Z,12.17
2022-11-14T07:32:43.176Z,13.83
2022-11-14T07:35:28.130Z,13.63
2022-11-14T07:38:13.396Z,12.20
2022-11-14T07:41:00.138Z,12.53
2022-11-14T07:43:46.250Z,12.50
2022-11-14T07:46:31.310Z,11.73
2022-11-14T07:49:16.936Z,12.40
2022-11-14T07:52:02.060Z,10.73
2022-11-14T07:54:47.312Z,12.63
2022-11-14T07:57:36.834Z,11.53
2022-11-14T08:00:25.671Z,10.30
2022-11-14T08:03:11.016Z,12.10
2022-11-14T08:06:06.578Z,10.40
2022-11-14T08:08:51.718Z,10.77
2022-11-14T08:12:03.189Z,11.73
2022-11-14T08:14:48.232Z,16.63
2022-11-14T08:17:33.180Z,24.63
2022-11-14T08:20:18.548Z,38.97
2022-11-14T08:23:05.858Z,38.30
2022-11-14T08:25:51.348Z,34.23
2022-11-14T08:28:36.892Z,37.77
2022-11-14T08:31:22.376Z,36.23
2022-11-14T08:34:07.698Z,46.20
2022-11-14T08:36:52.884Z,56.87
2022-11-14T08:39:38.075Z,55.70
2022-11-14T08:42:23.192Z,59.67
2022-11-14T08:45:08.596Z,54.80
2022-11-14T08:47:54.321Z,44.27
2022-11-14T08:50:40.012Z,96.50
2022-11-14T08:53:25.086Z,63.70
2022-11-14T08:56:11.015Z,47.17
2022-11-14T08:58:56.311Z,95.23
2022-11-14T09:01:41.629Z,79.13
2022-11-14T09:04:26.909Z,74.40
2022-11-14T09:07:12.297Z,42.17
2022-11-14T09:09:57.281Z,70.73
2022-11-14T09:12:42.295Z,38.70
2022-11-14T09:15:31.137Z,39.43
2022-11-14T09:18:16.354Z,36.13
2022-11-14T09:21:03.857Z,67.30
2022-11-14T09:23:49.283Z,88.17
2022-11-14T09:26:34.566Z,157.70
2022-11-14T09:29:19.822Z,186.77
2022-11-14T09:32:05.023Z,195.10
2022-11-14T09:34:50.468Z,151.87
2022-11-14T09:37:35.869Z,179.80
2022-11-14T09:40:21.000Z,160.67
2022-11-14T09:43:27.380Z,242.53
2022-11-14T09:46:25.599Z,334.33
2022-11-14T09:49:33.136Z,104.03
2022-11-14T09:52:47.550Z,222.50
2022-11-14T09:55:37.135Z,242.43
2022-11-14T09:58:22.511Z,185.63
2022-11-14T10:01:26.761Z,152.33
2022-11-14T10:04:27.796Z,74.87
2022-11-14T10:07:31.316Z,93.70
2022-11-14T10:10:16.671Z,85.40
2022-11-14T10:13:14.416Z,39.97
2022-11-14T10:16:07.879Z,57.80
2022-11-14T10:19:06.142Z,32.57
2022-11-14T10:22:00.643Z,41.63
2022-11-14T10:24:55.157Z,49.60
2022-11-14T10:28:00.956Z,52.13
2022-11-14T10:31:19.836Z,63.53
2022-11-14T10:34:47.237Z,66.73
2022-11-14T10:37:40.342Z,25.73
2022-11-14T10:40:48.598Z,26.77
2022-11-14T10:43:42.115Z,30.63
2022-11-14T10:46:41.862Z,25.33
2022-11-14T10:49:31.206Z,30.67
2022-11-14T10:52:20.091Z,32.37
2022-11-14T10:55:17.512Z,31.17
2022-11-14T10:58:02.515Z,23.80
2022-11-14T11:00:47.965Z,25.37
2022-11-14T11:03:44.622Z,22.57
2022-11-14T11:06:30.014Z,20.73
2022-11-14T11:09:46.166Z,22.67
2022-11-14T11:12:34.835Z,24.00
2022-11-14T11:15:20.371Z,22.97
2022-11-14T11:18:33.620Z,22.73
2022-11-14T11:21:21.956Z,26.20
2022-11-14T11:24:08.888Z,23.57
2022-11-14T11:27:27.457Z,25.43
2022-11-14T11:30:25.510Z,24.10
2022-11-14T11:33:32.359Z,29.60
2022-11-14T11:36:20.336Z,25.37
2022-11-14T11:39:05.796Z,27.10
2022-11-14T11:42:10.901Z,27.63
2022-11-14T11:45:01.594Z,27.47
2022-11-14T11:48:01.480Z,27.23
2022-11-14T11:50:48.215Z,25.20
2022-11-14T11:53:39.972Z,26.83
2022-11-14T11:56:29.981Z,27.83
2022-11-14T11:59:15.214Z,24.00
2022-11-14T12:02:22.217Z,27.43
2022-11-14T12:05:13.651Z,24.13
2022-11-14T12:08:04.474Z,24.83
2022-11-14T12:10:51.028Z,24.53
2022-11-14T12:13:45.735Z,23.30
2022-11-14T12:17:03.153Z,25.27
2022-11-14T12:20:21.379Z,25.20
2022-11-14T12:23:12.445Z,25.20
2022-11-14T12:26:13.597Z,24.90
2022-11-14T12:29:40.025Z,26.17
2022-11-14T12:32:41.292Z,23.63
2022-11-14T12:35:31.476Z,26.27
2022-11-14T12:38:21.152Z,27.70
2022-11-14T12:41:07.571Z,26.57
2022-11-14T12:43:53.301Z,25.30
2022-11-14T12:47:21.899Z,26.40
2022-11-14T12:50:29.043Z,26.33
2022-11-14T12:53:38.555Z,23.23
2022-11-14T12:56:56.462Z,27.03
2022-11-14T12:59:52.341Z,23.90
2022-11-14T13:02:37.582Z,24.87
2022-11-14T13:05:23.248Z,24.70
2022-11-14T13:08:27.230Z,26.70
2022-11-14T13:11:51.253Z,23.70
2022-11-14T13:15:10.483Z,29.40
2022-11-14T13:18:38.835Z,24.60
2022-11-14T13:21:48.135Z,25.53
2022-11-14T13:24:58.365Z,25.77
2022-11-14T13:28:06.606Z,26.40
2022-11-14T13:31:14.898Z,25.40
2022-11-14T13:34:00.248Z,26.53
2022-11-14T13:36:58.612Z,24.37
2022-11-14T13:40:04.356Z,25.63
2022-11-14T13:43:05.784Z,24.90
2022-11-14T13:45:51.057Z,23.70
2022-11-14T13:48:51.272Z,24.07
2022-11-14T13:51:43.401Z,25.63
2022-11-14T13:54:29.462Z,27.03
2022-11-14T13:57:23.835Z,23.63
2022-11-14T14:00:20.451Z,26.23
2022-11-14T14:03:21.010Z,25.67
2022-11-14T14:06:18.133Z,25.13
2022-11-14T14:09:15.392Z,23.40
2022-11-14T14:12:06.610Z,23.23
2022-11-14T14:15:36.316Z,25.50
2022-11-14T14:18:35.912Z,28.97
2022-11-14T14:21:35.261Z,21.97
2022-11-14T14:24:36.015Z,22.93
2022-11-14T14:27:21.174Z,22.90
2022-11-14T14:30:18.555Z,24.97
2022-11-14T14:33:14.132Z,22.70
2022-11-14T14:35:59.379Z,22.90
2022-11-14T14:38:45.246Z,22.43
2022-11-14T14:41:32.423Z,22.90
2022-11-14T14:44:37.124Z,26.80
2022-11-14T14:47:36.463Z,24.10
2022-11-14T14:50:26.900Z,25.83
2022-11-14T14:53:24.307Z,21.63
2022-11-14T14:56:28.700Z,24.00
2022-11-14T14:59:24.946Z,23.07
2022-11-14T15:02:22.464Z,22.30
2022-11-14T15:05:07.701Z,21.97
2022-11-14T15:07:59.078Z,32.40
2022-11-14T15:10:44.868Z,32.23
2022-11-14T15:13:31.112Z,24.30
2022-11-14T15:16:16.544Z,37.53
2022-11-14T15:19:01.889Z,23.47
2022-11-14T15:22:21.071Z,30.37
2022-11-14T15:25:05.956Z,18.97
2022-11-14T15:27:54.510Z,20.07
2022-11-14T15:30:39.719Z,19.50
2022-11-14T15:33:28.918Z,19.07
2022-11-14T15:36:17.862Z,19.03
2022-11-14T15:39:27.479Z,18.93
2022-11-14T15:42:19.978Z,18.17
2022-11-14T15:45:24.923Z,18.07
2022-11-14T15:48:16.394Z,17.00
2022-11-14T15:51:01.459Z,15.43
2022-11-14T15:53:50.146Z,16.87
2022-11-14T15:56:35.211Z,16.33
2022-11-14T15:59:20.442Z,14.73
2022-11-14T16:02:17.435Z,16.00
2022-11-14T16:05:04.522Z,16.37
2022-11-14T16:07:49.607Z,15.63
2022-11-14T16:10:34.991Z,15.77
2022-11-14T16:13:20.158Z,15.07
2022-11-14T16:16:05.625Z,14.67
2022-11-14T16:18:50.783Z,14.80
2022-11-14T16:21:37.170Z,12.90
2022-11-14T16:24:23.610Z,14.43
2022-11-14T16:27:09.086Z,13.20
2022-11-14T16:29:54.305Z,16.17
2022-11-14T16:32:40.376Z,16.13
2022-11-14T16:35:27.103Z,12.80
2022-11-14T16:38:13.629Z,11.63
2022-11-14T16:41:00.371Z,11.83
2022-11-14T16:43:45.617Z,9.90
2022-11-14T16:46:30.983Z,10.63
2022-11-14T16:49:17.474Z,11.70
2022-11-14T16:52:07.103Z,7.63
2022-11-14T16:54:52.403Z,7.93
2022-11-14T16:57:38.728Z,9.07
2022-11-14T17:00:24.567Z,8.07
2022-11-14T17:03:10.078Z,7.93
2022-11-14T17:05:55.247Z,7.70
2022-11-14T17:08:40.515Z,8.10
2022-11-14T17:11:26.402Z,7.90
2022-11-14T17:14:12.613Z,6.73
2022-11-14T17:17:04.295Z,8.00
2022-11-14T17:19:49.691Z,8.37
2022-11-14T17:22:35.383Z,8.60
2022-11-14T17:25:21.027Z,9.60
2022-11-14T17:28:06.217Z,11.10
2022-11-14T17:30:51.297Z,7.67
2022-11-14T17:33:37.070Z,7.73
2022-11-14T17:36:23.490Z,8.87
2022-11-14T17:39:08.571Z,7.93
2022-11-14T17:41:53.843Z,7.63
2022-11-14T17:44:39.149Z,7.70
2022-11-14T17:47:24.108Z,8.17
2022-11-14T17:50:09.861Z,8.10
2022-11-14T17:52:55.073Z,7.13
2022-11-14T17:55:40.318Z,7.37
2022-11-14T17:58:28.660Z,9.00
2022-11-14T18:01:17.039Z,7.67
2022-11-14T18:04:06.078Z,8.50
2022-11-14T18:06:53.547Z,11.30
2022-11-14T18:09:39.263Z,9.33
2022-11-14T18:12:25.240Z,10.53
2022-11-14T18:15:11.044Z,10.03
2022-11-14T18:17:57.063Z,9.40
2022-11-14T18:20:42.784Z,11.13
2022-11-14T18:23:28.853Z,10.90
2022-11-14T18:26:17.282Z,11.43
2022-11-14T18:29:03.044Z,12.30
2022-11-14T18:31:48.449Z,13.13
2022-11-14T18:34:36.919Z,11.93
2022-11-14T18:37:22.572Z,13.27
2022-11-14T18:40:12.094Z,11.67
2022-11-14T18:43:01.105Z,12.67
2022-11-14T18:45:46.318Z,11.00
2022-11-14T18:48:31.708Z,14.80
2022-11-14T18:51:20.328Z,11.60
2022-11-14T18:54:05.363Z,11.70
2022-11-14T18:56:51.130Z,9.60
2022-11-14T18:59:36.446Z,9.07
2022-11-14T19:02:21.679Z,8.80
2022-11-14T19:05:07.243Z,8.77
2022-11-14T19:07:52.809Z,8.97
2022-11-14T19:10:38.161Z,10.20
2022-11-14T19:13:24.270Z,10.43
2022-11-14T19:16:10.806Z,10.80
2022-11-14T19:18:56.023Z,12.10
2022-11-14T19:21:41.831Z,11.03
2022-11-14T19:24:26.696Z,14.10
2022-11-14T19:27:12.940Z,13.27
2022-11-14T19:29:58.042Z,16.17
2022-11-14T19:32:43.300Z,16.37
2022-11-14T19:35:28.444Z,14.97
2022-11-14T19:38:13.751Z,19.27
2022-11-14T19:41:04.402Z,17.97
2022-11-14T19:43:50.180Z,18.43
2022-11-14T19:46:36.825Z,24.63
2022-11-14T19:49:22.346Z,18.63
2022-11-14T19:52:08.363Z,20.43
2022-11-14T19:54:54.379Z,21.57
2022-11-14T19:57:39.620Z,22.43
2022-11-14T20:00:25.751Z,23.30
2022-11-14T20:03:11.815Z,23.23
2022-11-14T20:05:57.564Z,24.87
2022-11-14T20:08:42.520Z,28.80
2022-11-14T20:11:28.999Z,30.58
2022-11-14T20:14:14.450Z,26.50
2022-11-14T20:16:59.676Z,29.03
2022-11-14T20:19:45.018Z,27.40
2022-11-14T20:22:30.292Z,34.03
2022-11-14T20:25:16.988Z,28.73
2022-11-14T20:28:02.316Z,32.77
2022-11-14T20:30:47.361Z,28.07
2022-11-14T20:33:37.218Z,32.23
2022-11-14T20:36:24.614Z,27.80
2022-11-14T20:39:09.976Z,28.40
2022-11-14T20:41:55.195Z,28.63
2022-11-14T20:44:40.564Z,28.03
2022-11-14T20:47:27.459Z,29.90
2022-11-14T20:50:13.549Z,28.83
2022-11-14T20:52:58.737Z,34.13
2022-11-14T20:55:44.007Z,30.33
2022-11-14T20:58:29.228Z,33.03
2022-11-14T21:01:15.918Z,24.60
2022-11-14T21:04:01.293Z,25.90
2022-11-14T21:06:46.972Z,23.60
2022-11-14T21:09:32.276Z,23.77
2022-11-14T21:12:17.480Z,24.33
2022-11-14T21:15:02.727Z,23.67
2022-11-14T21:17:47.976Z,25.45
2022-11-14T21:20:33.335Z,23.50
2022-11-14T21:23:18.984Z,21.05
2022-11-14T21:26:11.429Z,20.98
2022-11-14T21:28:58.767Z,21.55
2022-11-14T21:31:45.750Z,21.48
2022-11-14T21:34:30.935Z,21.73
2022-11-14T21:37:16.123Z,20.33
2022-11-14T21:40:01.341Z,20.83
2022-11-14T21:42:46.413Z,21.38
2022-11-14T21:45:31.427Z,22.65
2022-11-14T21:48:16.700Z,22.55
2022-11-14T21:51:12.472Z,31.40
2022-11-14T21:53:58.821Z,21.90
2022-11-14T21:56:44.056Z,18.73
2022-11-14T21:59:30.716Z,19.17
2022-11-14T22:02:34.349Z,21.20
2022-11-14T22:05:19.501Z,17.97
2022-11-14T22:08:04.929Z,18.58
2022-11-14T22:10:50.099Z,16.48
2022-11-14T22:13:35.330Z,17.38
2022-11-14T22:16:21.038Z,17.20
2022-11-14T22:19:06.818Z,16.70
2022-11-14T22:21:51.904Z,15.45
2022-11-14T22:24:37.243Z,15.35
2022-11-14T22:27:22.530Z,13.50
2022-11-14T22:30:08.286Z,15.60
2022-11-14T22:32:53.520Z,16.40
2022-11-14T22:35:38.747Z,15.57
2022-11-14T22:38:23.881Z,18.45
2022-11-14T22:41:14.263Z,16.10
2022-11-14T22:43:59.611Z,15.00
2022-11-14T22:46:44.521Z,15.00
2022-11-14T22:49:29.859Z,15.27
2022-11-14T22:52:14.988Z,13.90
2022-11-14T22:55:00.314Z,14.70
2022-11-14T22:57:45.513Z,11.68
2022-11-14T23:00:30.790Z,10.07
2022-11-14T23:03:20.497Z,10.82
2022-11-14T23:06:09.838Z,10.93
2022-11-14T23:08:55.194Z,9.43
2022-11-14T23:11:40.769Z,8.82
2022-11-14T23:14:25.891Z,8.35
2022-11-14T23:17:10.994Z,8.93
2022-11-14T23:19:56.457Z,9.55
2022-11-14T23:22:41.735Z,9.48
2022-11-14T23:25:27.184Z,9.77
2022-11-14T23:28:12.440Z,9.07
2022-11-14T23:30:58.941Z,9.27
2022-11-14T23:33:44.141Z,9.98
2022-11-14T23:36:29.408Z,10.70
2022-11-14T23:39:14.819Z,9.15
2022-11-14T23:42:00.348Z,9.07
2022-11-14T23:44:45.331Z,9.38
2022-11-14T23:47:30.270Z,10.85
2022-11-14T23:50:15.585Z,12.98
2022-11-14T23:53:00.615Z,10.82
2022-11-14T23:56:00.832Z,14.77
2022-11-14T23:58:46.178Z,11.88
